Time;durP1;ratioP1;P1;durP2;ratioP2;P2;SDS_P1;SDS_P2;PMS_P1;PMS_P2;Temp;Humidity;BMP_temperature;BMP_pressure;BME280_temperature;BME280_humidity;BME280_pressure;Samples;Min_cycle;Max_cycle;Signal;HPM_P1;HPM_P2
2022/04/04 00:00:42;;;;;;;9.68;6.82;;;-2.40;99.90;;;;;;5031775;28;20224;-72
2022/04/04 00:03:09;;;;;;;9.85;7.68;;;-2.40;99.90;;;;;;5032276;28;20205;-71
2022/04/04 00:05:37;;;;;;;10.77;8.05;;;-2.40;99.90;;;;;;5031799;28;20221;-71
2022/04/04 00:08:04;;;;;;;10.45;6.70;;;-2.40;99.90;;;;;;5031878;28;20205;-72
2022/04/04 00:10:31;;;;;;;8.25;6.70;;;-2.50;99.90;;;;;;5032007;28;20205;-72
2022/04/04 00:12:57;;;;;;;10.13;7.22;;;-2.50;99.90;;;;;;5031955;28;20213;-71
2022/04/04 00:15:27;;;;;;;10.05;7.47;;;-2.50;99.90;;;;;;5031894;28;20225;-71
2022/04/04 00:17:55;;;;;;;9.32;6.68;;;-2.50;99.90;;;;;;5030722;28;20272;-72
2022/04/04 00:20:22;;;;;;;11.15;8.02;;;-2.60;99.90;;;;;;5031982;28;20197;-72
2022/04/04 00:22:49;;;;;;;9.43;7.10;;;-2.60;99.90;;;;;;5031238;28;20205;-72
2022/04/04 00:25:16;;;;;;;9.85;7.55;;;-2.70;99.90;;;;;;5031127;28;20614;-71
2022/04/04 00:27:44;;;;;;;9.20;6.80;;;-2.70;99.90;;;;;;5030828;28;20193;-72
2022/04/04 00:30:11;;;;;;;6.85;6.05;;;-2.70;99.90;;;;;;5031741;28;20202;-72
2022/04/04 00:32:39;;;;;;;8.27;6.30;;;-2.70;99.90;;;;;;5031600;28;20198;-72
2022/04/04 00:35:07;;;;;;;8.85;6.85;;;-2.70;99.90;;;;;;5031300;28;20205;-70
2022/04/04 00:37:34;;;;;;;9.77;7.38;;;-2.70;99.90;;;;;;5030898;28;20221;-71
2022/04/04 00:40:01;;;;;;;11.18;7.03;;;-2.80;99.90;;;;;;5031256;28;20596;-71
2022/04/04 00:42:28;;;;;;;10.02;7.07;;;-2.80;99.90;;;;;;5031410;28;20198;-72
2022/04/04 00:44:54;;;;;;;11.60;7.45;;;-2.80;99.90;;;;;;5031021;28;20198;-70
2022/04/04 00:47:21;;;;;;;9.05;6.95;;;-2.80;99.90;;;;;;5030808;28;20218;-72
2022/04/04 00:49:49;;;;;;;9.13;6.68;;;-2.80;99.90;;;;;;5031099;28;20552;-72
2022/04/04 00:52:16;;;;;;;11.05;7.05;;;-2.80;99.90;;;;;;5031032;28;20205;-72
2022/04/04 00:54:42;;;;;;;9.43;7.03;;;-2.80;99.90;;;;;;5030995;28;20591;-72
2022/04/04 00:57:09;;;;;;;9.18;6.97;;;-2.80;99.90;;;;;;5030158;28;20230;-72
2022/04/04 00:59:36;;;;;;;9.02;6.97;;;-2.80;99.90;;;;;;5031003;28;20206;-71
2022/04/04 01:02:04;;;;;;;7.40;6.22;;;-2.80;99.90;;;;;;5031188;28;20233;-71
2022/04/04 01:04:30;;;;;;;9.75;6.72;;;-2.80;99.90;;;;;;5030742;28;20328;-71
2022/04/04 01:07:01;;;;;;;11.55;7.60;;;-2.90;99.90;;;;;;5030082;28;20218;-71
2022/04/04 01:09:27;;;;;;;8.75;6.93;;;-2.90;99.90;;;;;;5030848;28;20206;-71
2022/04/04 01:12:06;;;;;;;8.40;6.68;;;-2.90;99.90;;;;;;5030647;28;20738;-71
2022/04/04 01:14:33;;;;;;;10.35;6.88;;;-2.90;99.90;;;;;;5030496;28;20627;-72
2022/04/04 01:17:00;;;;;;;7.60;6.80;;;-2.90;99.90;;;;;;5029756;28;20283;-72
2022/04/04 01:19:26;;;;;;;9.23;7.40;;;-3.00;99.90;;;;;;5030792;28;20735;-72
2022/04/04 01:21:54;;;;;;;10.82;6.30;;;-3.00;99.90;;;;;;5030475;28;20573;-71
2022/04/04 01:24:22;;;;;;;8.63;6.90;;;-3.00;99.90;;;;;;5031074;28;20233;-72
2022/04/04 01:26:50;;;;;;;9.07;6.30;;;-3.10;99.90;;;;;;5029442;28;20827;-72
2022/04/04 01:29:17;;;;;;;7.85;6.90;;;-3.10;99.90;;;;;;5030600;28;20225;-72
2022/04/04 01:31:44;;;;;;;7.82;6.65;;;-3.10;99.90;;;;;;5029898;28;20201;-72
2022/04/04 01:34:11;;;;;;;11.02;7.43;;;-3.10;99.90;;;;;;5030402;28;20676;-72
2022/04/04 01:36:38;;;;;;;7.88;6.40;;;-3.10;99.90;;;;;;5029342;28;20276;-71
2022/04/04 01:39:05;;;;;;;7.55;6.70;;;-3.10;99.90;;;;;;5029714;28;20208;-71
2022/04/04 01:41:34;;;;;;;8.80;6.75;;;-3.20;99.90;;;;;;5030515;28;20210;-71
2022/04/04 01:44:01;;;;;;;10.60;6.63;;;-3.20;99.90;;;;;;5030140;28;20213;-71
2022/04/04 01:46:27;;;;;;;11.30;7.00;;;-3.10;99.90;;;;;;5030549;28;20222;-72
2022/04/04 01:48:57;;;;;;;7.80;6.18;;;-3.10;99.90;;;;;;5029363;28;20202;-72
2022/04/04 01:51:24;;;;;;;7.75;6.80;;;-3.10;99.90;;;;;;5030399;28;20198;-71
2022/04/04 01:53:50;;;;;;;9.50;6.85;;;-3.10;99.90;;;;;;5030188;28;20266;-71
2022/04/04 01:56:18;;;;;;;7.72;6.50;;;-3.10;99.90;;;;;;5029932;28;20226;-72
2022/04/04 01:58:46;;;;;;;10.40;7.38;;;-3.00;99.90;;;;;;5029621;28;20700;-71
2022/04/04 02:01:14;;;;;;;8.55;6.00;;;-3.00;99.90;;;;;;5030152;28;20198;-72
2022/04/04 02:03:42;;;;;;;8.23;6.43;;;-3.10;99.90;;;;;;5030037;28;20205;-72
2022/04/04 02:06:09;;;;;;;8.13;5.70;;;-3.10;99.90;;;;;;5029901;28;20237;-72
2022/04/04 02:08:37;;;;;;;9.75;6.47;;;-3.10;99.90;;;;;;5029549;28;20201;-71
2022/04/04 02:11:05;;;;;;;7.55;6.15;;;-3.00;99.90;;;;;;5030270;28;20205;-71
2022/04/04 02:13:32;;;;;;;7.85;6.60;;;-3.10;99.90;;;;;;5029912;28;20206;-72
2022/04/04 02:16:02;;;;;;;10.45;6.50;;;-3.10;99.90;;;;;;5030038;28;20222;-71
2022/04/04 02:18:32;;;;;;;7.10;6.40;;;-3.10;99.90;;;;;;5094730;22;20216;-96
2022/04/04 02:21:00;;;;;;;8.40;6.50;;;-3.10;99.90;;;;;;5090945;28;20180;-96
2022/04/04 02:23:27;;;;;;;7.80;5.97;;;-3.10;99.90;;;;;;5077092;28;20234;-95
2022/04/04 02:25:56;;;;;;;7.53;6.05;;;-3.10;99.90;;;;;;5076691;28;20213;-96
2022/04/04 02:28:26;;;;;;;11.27;7.28;;;-3.10;99.90;;;;;;5062508;28;20202;-96
2022/04/04 02:30:53;;;;;;;8.32;6.13;;;-3.10;99.90;;;;;;5056764;28;20241;-96
2022/04/04 02:33:24;;;;;;;9.27;6.50;;;-3.20;99.90;;;;;;5056964;28;20186;-96
2022/04/04 02:35:52;;;;;;;7.63;6.70;;;-3.20;99.90;;;;;;5056799;28;20185;-96
2022/04/04 02:38:20;;;;;;;7.10;5.82;;;-3.20;99.90;;;;;;5056408;28;20214;-95
2022/04/04 02:40:47;;;;;;;7.13;5.80;;;-3.30;99.90;;;;;;5056638;28;20204;-95
2022/04/04 02:43:14;;;;;;;9.20;5.88;;;-3.30;99.90;;;;;;5056551;28;20224;-96
2022/04/04 02:45:41;;;;;;;7.93;6.30;;;-3.40;99.90;;;;;;5056821;28;20212;-96
2022/04/04 02:48:11;;;;;;;8.85;6.00;;;-3.40;99.90;;;;;;5056646;28;20206;-96
2022/04/04 02:50:40;;;;;;;7.07;6.32;;;-3.40;99.90;;;;;;5060544;28;20175;-95
2022/04/04 02:53:07;;;;;;;9.75;6.97;;;-3.50;99.90;;;;;;5060381;28;20185;-96
2022/04/04 02:58:21;;;;;;;7.15;6.25;;;-3.60;99.90;;;;;;5060224;28;20228;-95
2022/04/04 03:00:48;;;;;;;7.45;6.40;;;-3.60;99.90;;;;;;5060120;28;20209;-95
2022/04/04 03:03:19;;;;;;;7.10;5.35;;;-3.60;99.90;;;;;;5059969;28;20198;-96
2022/04/04 03:05:47;;;;;;;10.07;6.65;;;-3.60;99.90;;;;;;5060294;28;20174;-96
2022/04/04 03:08:14;;;;;;;8.45;6.35;;;-3.70;99.90;;;;;;5059915;28;20281;-96
2022/04/04 03:10:42;;;;;;;9.05;6.57;;;-3.80;99.90;;;;;;5059784;28;20198;-95
2022/04/04 03:13:09;;;;;;;7.25;6.05;;;-3.80;99.90;;;;;;5060094;28;20182;-96
2022/04/04 03:15:37;;;;;;;7.53;5.80;;;-3.90;99.90;;;;;;5059887;28;20190;-95
2022/04/04 03:18:05;;;;;;;9.00;6.90;;;-3.90;99.90;;;;;;5059468;28;20214;-95
2022/04/04 03:20:33;;;;;;;8.18;6.55;;;-3.90;99.90;;;;;;5059950;28;20190;-95
2022/04/04 03:23:03;;;;;;;9.50;6.75;;;-3.90;99.90;;;;;;5059741;28;20182;-96
2022/04/04 03:25:30;;;;;;;8.13;6.55;;;-4.00;99.90;;;;;;5063646;22;20237;-68
2022/04/04 03:27:57;;;;;;;6.13;5.40;;;-4.00;99.90;;;;;;5031652;28;20194;-68
2022/04/04 03:30:27;;;;;;;9.75;7.05;;;-4.00;99.90;;;;;;5032172;28;20420;-68
2022/04/04 03:32:57;;;;;;;9.18;7.30;;;-4.00;99.90;;;;;;5031335;28;20445;-68
2022/04/04 03:35:24;;;;;;;8.15;6.40;;;-4.10;99.90;;;;;;5018475;28;20240;-69
2022/04/04 03:37:53;;;;;;;9.68;6.32;;;-4.10;99.90;;;;;;5019862;28;20241;-68
2022/04/04 03:40:21;;;;;;;9.57;6.90;;;-4.10;99.90;;;;;;5022118;28;20553;-68
2022/04/04 03:42:51;;;;;;;8.65;6.40;;;-4.10;99.90;;;;;;5021687;28;20222;-68
2022/04/04 03:45:19;;;;;;;11.25;7.20;;;-4.10;99.90;;;;;;5019944;28;20541;-68
2022/04/04 03:47:46;;;;;;;13.43;7.20;;;-4.10;99.90;;;;;;5021298;28;20197;-68
2022/04/04 03:50:14;;;;;;;8.60;7.15;;;-4.10;99.90;;;;;;5021763;28;20195;-68
2022/04/04 03:52:42;;;;;;;10.35;7.05;;;-4.10;99.90;;;;;;5019806;28;20832;-68
2022/04/04 03:55:11;;;;;;;17.90;7.40;;;-4.10;99.90;;;;;;5021007;28;20195;-68
2022/04/04 03:57:40;;;;;;;16.77;6.20;;;-4.10;99.90;;;;;;5019891;28;20773;-69
2022/04/04 04:00:08;;;;;;;10.73;7.00;;;-4.10;99.90;;;;;;5021498;28;20693;-69
2022/04/04 04:02:36;;;;;;;8.38;7.00;;;-4.10;99.90;;;;;;5022130;28;20202;-69
2022/04/04 04:05:03;;;;;;;11.73;7.00;;;-4.20;99.90;;;;;;5022773;28;20194;-69
2022/04/04 04:07:30;;;;;;;8.32;6.10;;;-4.10;99.90;;;;;;5030590;28;20198;-69
2022/04/04 04:09:57;;;;;;;13.35;6.20;;;-4.10;99.90;;;;;;5025770;28;20589;-68
2022/04/04 04:12:23;;;;;;;8.95;6.85;;;-4.10;99.90;;;;;;5021746;28;20607;-69
2022/04/04 04:14:53;;;;;;;8.70;5.43;;;-4.10;99.90;;;;;;5022172;28;20201;-69
2022/04/04 04:17:21;;;;;;;7.22;6.10;;;-4.10;99.90;;;;;;5019183;28;20233;-69
2022/04/04 04:22:32;;;;;;;8.73;5.80;;;-4.10;99.90;;;;;;5022363;28;20341;-69
2022/04/04 04:24:59;;;;;;;10.10;6.55;;;-4.00;99.90;;;;;;5019879;28;20206;-69
2022/04/04 04:27:26;;;;;;;9.82;6.47;;;-4.00;99.90;;;;;;5019681;28;20202;-68
2022/04/04 04:29:54;;;;;;;7.30;6.28;;;-3.90;99.90;;;;;;5029151;28;20216;-70
2022/04/04 04:32:21;;;;;;;6.50;5.80;;;-3.90;99.90;;;;;;5012115;28;20239;-69
2022/04/04 04:34:50;;;;;;;10.25;6.93;;;-3.80;99.90;;;;;;5012127;28;20230;-69
2022/04/04 04:37:17;;;;;;;7.10;6.40;;;-3.80;99.90;;;;;;5010599;28;20301;-69
2022/04/04 04:39:44;;;;;;;7.82;6.93;;;-3.80;99.90;;;;;;5011657;28;20209;-69
2022/04/04 04:42:10;;;;;;;9.23;7.22;;;-3.80;99.90;;;;;;5011313;28;20620;-69
2022/04/04 04:44:37;;;;;;;8.10;6.43;;;-3.70;99.90;;;;;;5011619;28;20207;-69
2022/04/04 04:47:07;;;;;;;9.35;7.20;;;-3.80;99.90;;;;;;5010606;28;20748;-69
2022/04/04 04:49:34;;;;;;;8.05;6.80;;;-3.70;99.90;;;;;;5011531;28;20202;-69
2022/04/04 04:52:01;;;;;;;8.88;7.22;;;-3.70;99.90;;;;;;5011484;28;20206;-69
2022/04/04 04:54:30;;;;;;;9.55;7.00;;;-3.70;99.90;;;;;;5011367;28;20214;-69
2022/04/04 04:56:57;;;;;;;10.35;6.57;;;-3.70;99.90;;;;;;5010866;28;20226;-69
2022/04/04 04:59:24;;;;;;;8.13;6.35;;;-3.60;99.90;;;;;;5011201;28;20222;-68
2022/04/04 05:01:51;;;;;;;7.82;6.60;;;-3.60;99.90;;;;;;5011394;28;20243;-69
2022/04/04 05:04:19;;;;;;;9.95;6.93;;;-3.60;99.90;;;;;;5010753;28;20674;-69
2022/04/04 05:06:48;;;;;;;8.10;6.55;;;-3.60;99.90;;;;;;5011347;28;20226;-69
2022/04/04 05:09:15;;;;;;;8.27;6.15;;;-3.60;99.90;;;;;;5010525;28;20202;-69
2022/04/04 05:11:42;;;;;;;7.50;6.70;;;-3.60;99.90;;;;;;5011067;28;20218;-69
2022/04/04 05:14:13;;;;;;;7.38;6.20;;;-3.60;99.90;;;;;;5010600;28;20206;-69
2022/04/04 05:16:40;;;;;;;8.32;6.05;;;-3.60;99.90;;;;;;5010307;28;20249;-68
2022/04/04 05:19:07;;;;;;;9.00;6.82;;;-3.60;99.90;;;;;;5010845;28;20219;-69
2022/04/04 05:21:35;;;;;;;7.85;6.20;;;-3.60;99.90;;;;;;5010564;28;20213;-69
2022/04/04 05:24:02;;;;;;;6.43;5.70;;;-3.60;99.90;;;;;;5010717;28;20199;-69
2022/04/04 05:26:29;;;;;;;9.50;6.75;;;-3.50;99.90;;;;;;5010604;28;20233;-69
2022/04/04 05:28:57;;;;;;;8.82;7.22;;;-3.50;99.90;;;;;;5010220;28;20222;-69
2022/04/04 05:31:24;;;;;;;8.57;6.97;;;-3.50;99.90;;;;;;5010523;28;20209;-69
2022/04/04 05:33:51;;;;;;;10.00;7.55;;;-3.50;99.90;;;;;;5010865;28;20666;-69
2022/04/04 05:36:20;;;;;;;8.80;7.03;;;-3.50;99.90;;;;;;5010259;28;20288;-69
2022/04/04 05:38:50;;;;;;;10.85;7.10;;;-3.50;99.90;;;;;;5010417;28;20321;-69
2022/04/04 05:41:17;;;;;;;9.25;6.82;;;-3.50;99.90;;;;;;5010467;28;20202;-69
2022/04/04 05:43:44;;;;;;;10.98;7.05;;;-3.50;99.90;;;;;;5010560;28;20225;-69
2022/04/04 05:46:12;;;;;;;9.65;6.65;;;-3.50;99.90;;;;;;5010245;28;20222;-68
2022/04/04 05:48:39;;;;;;;12.30;6.50;;;-3.50;99.90;;;;;;5011185;28;20217;-69
2022/04/04 05:51:06;;;;;;;8.57;6.63;;;-3.50;99.90;;;;;;5011694;28;20206;-68
2022/04/04 05:53:33;;;;;;;8.60;7.28;;;-3.50;99.90;;;;;;5011558;28;20218;-69
2022/04/04 05:56:02;;;;;;;12.93;7.30;;;-3.50;99.90;;;;;;5010872;28;20218;-69
2022/04/04 05:58:29;;;;;;;11.57;7.18;;;-3.40;99.90;;;;;;5009701;28;20222;-69
2022/04/04 06:00:56;;;;;;;7.95;6.90;;;-3.30;99.90;;;;;;5010733;28;20674;-69
2022/04/04 06:03:23;;;;;;;11.05;6.28;;;-3.20;99.90;;;;;;5010437;28;20241;-69
2022/04/04 06:05:50;;;;;;;10.60;6.78;;;-3.20;99.90;;;;;;5010474;28;20226;-69
2022/04/04 06:08:17;;;;;;;9.15;6.97;;;-3.20;99.90;;;;;;5010358;28;20205;-69
2022/04/04 06:10:45;;;;;;;13.82;6.72;;;-3.20;99.90;;;;;;5010205;28;20206;-69
2022/04/04 06:13:14;;;;;;;8.77;6.45;;;-3.10;99.90;;;;;;5010651;28;20749;-69
2022/04/04 06:15:42;;;;;;;8.82;6.63;;;-3.00;99.90;;;;;;5010086;28;20223;-69
2022/04/04 06:18:09;;;;;;;8.20;6.38;;;-3.00;99.90;;;;;;5010023;28;20603;-69
2022/04/04 06:20:36;;;;;;;12.40;7.05;;;-2.90;99.90;;;;;;5010107;28;20203;-68
2022/04/04 06:23:04;;;;;;;8.75;6.45;;;-2.80;99.90;;;;;;5010956;28;20202;-69
2022/04/04 06:25:31;;;;;;;8.00;6.07;;;-2.80;99.90;;;;;;5013877;28;20226;-68
2022/04/04 06:27:58;;;;;;;11.00;6.70;;;-2.70;99.90;;;;;;5013691;28;20616;-69
2022/04/04 06:30:28;;;;;;;6.93;5.40;;;-2.60;99.90;;;;;;5014634;28;20693;-69
2022/04/04 06:32:54;;;;;;;9.95;6.97;;;-2.50;99.90;;;;;;5014042;28;20686;-69
2022/04/04 06:35:23;;;;;;;21.70;7.07;;;-2.40;99.90;;;;;;5014306;28;20230;-69
2022/04/04 06:37:51;;;;;;;8.13;6.55;;;-2.30;99.90;;;;;;5013445;28;20210;-69
2022/04/04 06:40:18;;;;;;;7.50;6.05;;;-2.20;99.90;;;;;;5014087;28;20706;-69
2022/04/04 06:42:46;;;;;;;8.77;7.13;;;-2.10;99.90;;;;;;5014020;28;20202;-69
2022/04/04 06:45:17;;;;;;;7.60;6.22;;;-2.00;99.90;;;;;;5014147;28;20218;-70
2022/04/04 06:47:45;;;;;;;7.18;6.13;;;-2.00;99.90;;;;;;5013443;28;20209;-69
2022/04/04 06:50:13;;;;;;;10.57;7.15;;;-2.00;99.90;;;;;;5013832;28;20229;-69
2022/04/04 06:52:40;;;;;;;5.82;5.28;;;-1.90;99.90;;;;;;5013902;28;20887;-69
2022/04/04 06:55:08;;;;;;;6.72;5.75;;;-1.80;99.90;;;;;;5013677;28;20213;-69
2022/04/04 06:57:34;;;;;;;9.80;7.00;;;-1.70;99.90;;;;;;5013086;28;20210;-68
2022/04/04 07:00:01;;;;;;;7.75;6.75;;;-1.60;99.90;;;;;;5013619;28;20222;-69
2022/04/04 07:02:28;;;;;;;9.18;6.25;;;-1.50;99.90;;;;;;5013762;28;20678;-69
2022/04/04 07:04:56;;;;;;;9.35;6.78;;;-1.30;99.90;;;;;;5013531;28;20225;-69
2022/04/04 07:07:24;;;;;;;13.05;6.78;;;-1.20;99.90;;;;;;5013363;28;20234;-69
2022/04/04 07:09:51;;;;;;;10.25;6.70;;;-1.20;99.90;;;;;;5013926;28;20612;-69
2022/04/04 07:12:17;;;;;;;7.32;5.80;;;-1.10;99.90;;;;;;5013619;28;20226;-69
2022/04/04 07:14:44;;;;;;;10.10;6.25;;;-1.00;99.90;;;;;;5013402;28;20210;-69
2022/04/04 07:17:11;;;;;;;10.27;5.82;;;-1.00;99.90;;;;;;5012864;28;20230;-69
2022/04/04 07:19:37;;;;;;;8.80;6.95;;;-0.80;99.90;;;;;;5013180;28;20784;-69
2022/04/04 07:22:05;;;;;;;8.23;6.15;;;-0.70;99.90;;;;;;5013393;28;20630;-69
2022/04/04 07:24:32;;;;;;;9.93;7.43;;;-0.60;99.90;;;;;;5013237;28;20591;-69
2022/04/04 07:26:59;;;;;;;9.10;6.45;;;-0.40;99.90;;;;;;5012520;28;20222;-69
2022/04/04 07:29:26;;;;;;;8.10;7.00;;;-0.30;99.90;;;;;;5013180;28;20246;-69
2022/04/04 07:31:53;;;;;;;10.70;6.60;;;-0.10;99.90;;;;;;5013249;28;20207;-69
2022/04/04 07:34:20;;;;;;;11.05;6.85;;;0.10;99.90;;;;;;5013201;28;20628;-69
2022/04/04 07:36:47;;;;;;;8.40;5.90;;;0.30;99.90;;;;;;5012486;28;20317;-69
2022/04/04 07:39:15;;;;;;;6.72;5.97;;;0.60;99.90;;;;;;5012868;28;20233;-69
2022/04/04 07:41:41;;;;;;;7.97;5.60;;;0.90;99.90;;;;;;5012977;28;20202;-69
2022/04/04 07:44:08;;;;;;;7.60;5.90;;;1.30;99.90;;;;;;5012760;28;20696;-69
2022/04/04 07:46:35;;;;;;;7.45;4.97;;;1.50;99.40;;;;;;5012442;28;20309;-69
2022/04/04 07:49:02;;;;;;;8.60;5.68;;;1.70;99.80;;;;;;5012647;28;20214;-69
2022/04/04 07:51:29;;;;;;;7.10;5.68;;;2.10;99.90;;;;;;5012880;28;20206;-68
2022/04/04 07:53:55;;;;;;;6.82;5.20;;;2.60;98.60;;;;;;5012674;28;20202;-68
2022/04/04 07:56:23;;;;;;;5.75;5.15;;;3.20;97.60;;;;;;5012758;28;20223;-69
2022/04/04 07:58:50;;;;;;;6.10;4.85;;;3.80;97.00;;;;;;5012403;28;20223;-69
2022/04/04 08:01:17;;;;;;;5.28;4.65;;;4.20;95.40;;;;;;5012505;28;20206;-68
2022/04/04 08:03:43;;;;;;;8.23;4.90;;;4.50;93.50;;;;;;5012752;28;20536;-69
2022/04/04 08:06:10;;;;;;;5.30;4.40;;;4.70;93.00;;;;;;5012400;28;20222;-69
2022/04/04 08:08:37;;;;;;;5.60;5.10;;;4.90;92.80;;;;;;5012104;28;20217;-69
2022/04/04 08:11:03;;;;;;;7.60;5.38;;;5.20;92.80;;;;;;5012308;28;20242;-69
2022/04/04 08:13:32;;;;;;;4.63;4.20;;;5.10;91.90;;;;;;5012488;28;20202;-69
2022/04/04 08:16:00;;;;;;;6.45;5.20;;;5.20;92.00;;;;;;5012120;28;20223;-69
2022/04/04 08:18:30;;;;;;;5.75;5.25;;;5.30;91.60;;;;;;5062672;23;20307;-92
2022/04/04 08:20:57;;;;;;;5.13;4.65;;;5.50;91.20;;;;;;5052932;28;20742;-93
2022/04/04 08:23:29;;;;;;;6.72;5.35;;;5.70;90.90;;;;;;5056978;28;20228;-92
2022/04/04 08:25:57;;;;;;;6.20;5.22;;;6.20;89.20;;;;;;5057477;28;20201;-92
2022/04/04 08:28:24;;;;;;;5.53;5.03;;;6.10;89.00;;;;;;5057552;28;20228;-92
2022/04/04 08:30:53;;;;;;;4.78;4.38;;;6.30;89.50;;;;;;5057315;28;20280;-93
2022/04/04 08:33:20;;;;;;;10.20;5.80;;;6.90;89.70;;;;;;5057333;28;20201;-93
2022/04/04 08:35:47;;;;;;;7.03;5.15;;;7.40;89.60;;;;;;5057305;28;20211;-91
2022/04/04 08:38:14;;;;;;;5.28;4.78;;;8.00;88.10;;;;;;5057301;28;20298;-92
2022/04/04 08:40:53;;;;;;;6.13;5.00;;;8.80;85.70;;;;;;5056393;28;20227;-93
2022/04/04 08:43:43;;;;;;;6.15;5.10;;;8.90;81.40;;;;;;5056516;28;20201;-92
2022/04/04 08:46:12;;;;;;;5.05;4.60;;;8.00;85.40;;;;;;5055834;28;20201;-93
2022/04/04 08:48:40;;;;;;;5.30;4.80;;;7.90;83.20;;;;;;5055818;28;20225;-92
2022/04/04 08:51:09;;;;;;;6.22;5.28;;;8.10;83.30;;;;;;5055627;28;20621;-93
2022/04/04 08:53:37;;;;;;;5.32;4.75;;;8.50;80.20;;;;;;5057197;28;20209;-93
2022/04/04 08:56:05;;;;;;;6.07;5.47;;;7.80;80.90;;;;;;5057691;28;20651;-93
2022/04/04 08:58:32;;;;;;;6.10;5.25;;;7.40;79.30;;;;;;5056452;28;20221;-93
2022/04/04 09:00:59;;;;;;;5.22;4.82;;;7.90;81.20;;;;;;5056189;28;20227;-93
2022/04/04 09:03:31;;;;;;;6.28;4.97;;;8.90;77.90;;;;;;5056684;28;20205;-93
2022/04/04 09:06:01;;;;;;;5.68;5.07;;;10.00;78.50;;;;;;5056627;28;20207;-92
2022/04/04 09:11:10;;;;;;;6.65;5.53;;;10.60;75.00;;;;;;5057173;28;20197;-92
2022/04/04 09:13:38;;;;;;;9.05;4.97;;;11.20;70.90;;;;;;5057773;28;20268;-92
2022/04/04 09:16:12;;;;;;;5.30;4.80;;;11.40;70.30;;;;;;5057884;28;20656;-92
2022/04/04 09:25:02;;;;;;;5.55;5.05;;;11.70;68.00;;;;;;5058169;28;20189;-93
2022/04/04 09:27:32;;;;;;;5.60;5.10;;;11.30;67.20;;;;;;5056738;28;20662;-93
2022/04/04 09:30:01;;;;;;;5.43;4.85;;;11.30;70.60;;;;;;5068920;28;20220;-93
2022/04/04 09:32:39;;;;;;;5.20;4.68;;;11.40;66.60;;;;;;5063823;28;20208;-93
2022/04/04 09:35:12;;;;;;;6.30;5.70;;;12.30;67.20;;;;;;5060737;28;20197;-93
2022/04/04 09:37:43;;;;;;;5.93;5.40;;;13.20;66.30;;;;;;5062254;28;20690;-93
2022/04/04 09:40:15;;;;;;;5.18;4.68;;;12.80;63.40;;;;;;5061967;28;20308;-93
2022/04/04 09:42:59;;;;;;;5.63;4.63;;;13.10;64.90;;;;;;5060239;28;20253;-93
2022/04/04 09:50:53;;;;;;;4.75;4.35;;;13.90;61.80;;;;;;5060383;28;20193;-93
2022/04/04 09:53:24;;;;;;;6.28;5.00;;;13.30;61.40;;;;;;5060231;28;20228;-94
2022/04/04 09:55:55;;;;;;;5.70;5.20;;;13.20;60.40;;;;;;5060891;28;20772;-92
2022/04/04 09:58:23;;;;;;;5.10;4.70;;;12.70;60.70;;;;;;5066378;28;20216;-92
2022/04/04 10:00:51;;;;;;;6.75;4.97;;;12.60;66.40;;;;;;5064090;28;20225;-92
2022/04/04 10:03:29;;;;;;;6.05;5.25;;;13.40;63.90;;;;;;5064121;28;20746;-94
2022/04/04 10:05:58;;;;;;;4.50;4.10;;;14.20;61.70;;;;;;5064310;28;20260;-94
2022/04/04 10:08:28;;;;;;;5.90;5.40;;;14.50;61.20;;;;;;5064130;28;20602;-93
2022/04/04 10:10:55;;;;;;;6.37;5.80;;;14.90;64.70;;;;;;5063184;28;20451;-94
2022/04/04 10:13:23;;;;;;;8.33;5.93;;;14.70;61.20;;;;;;5063596;28;20459;-94
2022/04/04 10:15:52;;;;;;;7.72;5.68;;;14.30;62.00;;;;;;5069785;28;20464;-93
2022/04/04 10:18:21;;;;;;;5.80;5.30;;;13.00;63.40;;;;;;5064641;28;20601;-93
2022/04/04 10:20:52;;;;;;;5.60;5.10;;;12.40;65.60;;;;;;5060802;28;20259;-93
2022/04/04 10:23:22;;;;;;;6.07;5.57;;;11.50;66.70;;;;;;5060772;28;20189;-93
2022/04/04 10:25:51;;;;;;;5.03;4.53;;;11.40;68.90;;;;;;5061393;28;20211;-95
2022/04/04 10:28:28;;;;;;;7.32;5.32;;;11.70;66.80;;;;;;5060972;28;20225;-94
2022/04/04 10:30:59;;;;;;;8.40;5.30;;;12.10;67.40;;;;;;5063794;28;20197;-94
2022/04/04 10:33:27;;;;;;;5.82;5.32;;;12.50;66.30;;;;;;5061776;28;20673;-93
2022/04/04 10:36:02;;;;;;;5.88;5.30;;;12.10;67.00;;;;;;5061417;28;20700;-93
2022/04/04 10:38:30;;;;;;;8.05;5.47;;;12.40;67.20;;;;;;5063407;28;20315;-93
2022/04/04 10:41:01;;;;;;;7.43;4.80;;;13.00;64.40;;;;;;5062613;28;20221;-94
2022/04/04 10:43:32;;;;;;;6.50;5.90;;;13.30;66.50;;;;;;5063097;28;20745;-93
2022/04/04 10:46:02;;;;;;;6.13;5.63;;;13.00;64.50;;;;;;5060730;28;20232;-92
2022/04/04 10:48:31;;;;;;;5.97;4.63;;;12.80;61.50;;;;;;5068271;28;20736;-92
2022/04/04 10:51:17;;;;;;;4.82;4.18;;;12.90;61.80;;;;;;5060358;28;20209;-93
2022/04/04 10:53:47;;;;;;;4.50;4.10;;;13.00;59.50;;;;;;5061399;28;20205;-93
2022/04/04 10:56:31;;;;;;;5.10;4.70;;;13.20;61.00;;;;;;5060251;28;20201;-92
2022/04/04 10:59:25;;;;;;;4.53;4.13;;;13.30;60.30;;;;;;5059665;28;20224;-94
2022/04/04 11:01:54;;;;;;;4.90;4.50;;;13.30;59.80;;;;;;5060707;28;20287;-93
2022/04/04 11:04:25;;;;;;;5.78;4.28;;;13.60;62.30;;;;;;5060993;28;20209;-93
2022/04/04 11:09:52;;;;;;;6.25;4.47;;;14.50;59.60;;;;;;5059144;28;20535;-93
2022/04/04 11:12:22;;;;;;;4.82;4.43;;;14.10;59.80;;;;;;5062457;28;20205;-93
2022/04/04 11:14:58;;;;;;;5.78;4.80;;;13.20;62.20;;;;;;5059974;28;20292;-93
2022/04/04 11:17:33;;;;;;;5.13;4.63;;;12.70;61.80;;;;;;5061061;28;20240;-92
2022/04/04 11:20:04;;;;;;;4.95;4.47;;;12.50;62.50;;;;;;5061210;28;20256;-93
2022/04/04 11:22:34;;;;;;;5.47;4.97;;;12.50;60.60;;;;;;5058512;28;20239;-93
2022/04/04 11:25:05;;;;;;;4.68;4.28;;;12.70;62.60;;;;;;5059469;28;20212;-93
2022/04/04 11:27:37;;;;;;;4.57;4.15;;;13.70;62.40;;;;;;5060365;28;20205;-93
2022/04/04 11:30:07;;;;;;;5.72;4.10;;;14.10;59.80;;;;;;5058628;28;20201;-93
2022/04/04 11:32:40;;;;;;;4.20;3.83;;;14.40;59.90;;;;;;5058743;28;20223;-93
2022/04/04 11:35:10;;;;;;;4.70;4.30;;;14.60;59.70;;;;;;5057552;28;20193;-91
2022/04/04 11:37:45;;;;;;;5.68;4.53;;;14.80;57.90;;;;;;5055640;22;20248;-71
2022/04/04 11:40:14;;;;;;;5.60;4.70;;;14.00;59.40;;;;;;5032528;28;20217;-72
2022/04/04 11:42:47;;;;;;;4.65;4.03;;;13.70;60.00;;;;;;5032242;28;20209;-71
2022/04/04 11:45:18;;;;;;;4.22;3.90;;;12.60;63.00;;;;;;5032645;28;20244;-71
2022/04/04 11:47:56;;;;;;;4.93;4.45;;;12.60;60.20;;;;;;5031618;28;20217;-71
2022/04/04 11:50:26;;;;;;;4.60;4.20;;;13.10;63.50;;;;;;5032687;28;20197;-71
2022/04/04 11:52:54;;;;;;;4.45;4.03;;;13.80;62.80;;;;;;5032417;28;20210;-71
2022/04/04 11:55:23;;;;;;;5.13;4.53;;;13.50;62.10;;;;;;5032151;28;20229;-71
2022/04/04 11:57:51;;;;;;;4.70;4.30;;;14.30;64.10;;;;;;5031644;28;20212;-71
2022/04/04 12:00:22;;;;;;;4.03;3.73;;;14.60;59.80;;;;;;5032156;28;20320;-72
2022/04/04 12:02:49;;;;;;;5.13;3.90;;;15.10;58.80;;;;;;5032303;28;20464;-72
2022/04/04 12:05:21;;;;;;;6.10;4.20;;;15.70;58.70;;;;;;5031968;28;20512;-73
2022/04/04 12:07:49;;;;;;;4.43;4.03;;;16.10;59.40;;;;;;5031497;28;20828;-72
2022/04/04 12:10:17;;;;;;;5.40;4.80;;;15.60;58.30;;;;;;5032333;28;20464;-72
2022/04/04 12:12:45;;;;;;;5.30;4.80;;;15.20;59.90;;;;;;5031700;28;20495;-73
2022/04/04 12:15:13;;;;;;;7.67;4.83;;;14.90;59.20;;;;;;5032012;28;20460;-72
2022/04/04 12:17:39;;;;;;;5.63;4.43;;;15.30;59.70;;;;;;5031218;28;20464;-73
2022/04/04 12:20:15;;;;;;;5.03;4.60;;;15.40;60.60;;;;;;5031880;28;21046;-72
2022/04/04 12:25:26;;;;;;;5.03;4.63;;;13.40;61.40;;;;;;5031826;28;20876;-71
2022/04/04 12:27:57;;;;;;;5.78;4.90;;;12.80;63.40;;;;;;5031122;28;20205;-72
2022/04/04 12:30:33;;;;;;;5.45;4.95;;;12.10;64.60;;;;;;5031316;28;20301;-71
2022/04/04 12:33:11;;;;;;;4.80;4.40;;;11.50;65.60;;;;;;5032068;28;20212;-72
2022/04/04 12:35:42;;;;;;;6.47;5.45;;;12.20;64.90;;;;;;5032276;28;20229;-71
2022/04/04 12:38:09;;;;;;;5.47;4.80;;;12.50;64.40;;;;;;5031698;28;20714;-71
2022/04/04 12:40:38;;;;;;;4.85;4.45;;;12.80;63.70;;;;;;5032649;28;20261;-71
2022/04/04 12:43:08;;;;;;;5.35;4.85;;;13.20;65.40;;;;;;5032780;28;20240;-71
2022/04/04 12:45:46;;;;;;;6.05;5.45;;;12.40;63.20;;;;;;5031314;28;20230;-71
2022/04/04 12:48:13;;;;;;;5.90;5.20;;;12.20;64.50;;;;;;5030977;28;20669;-72
2022/04/04 12:50:41;;;;;;;5.45;4.95;;;12.70;64.50;;;;;;5031357;28;20285;-71
2022/04/04 12:53:10;;;;;;;6.40;5.38;;;13.50;63.90;;;;;;5031704;28;20560;-74
2022/04/04 12:55:38;;;;;;;8.38;5.30;;;13.50;63.10;;;;;;5033104;28;20226;-72
2022/04/04 12:58:19;;;;;;;6.75;6.05;;;13.00;63.90;;;;;;5030689;28;20573;-72
2022/04/04 13:00:48;;;;;;;6.05;5.55;;;13.00;65.80;;;;;;5030967;28;20253;-72
2022/04/04 13:03:23;;;;;;;5.93;5.43;;;12.20;64.30;;;;;;5031103;28;20202;-72
2022/04/04 13:05:52;;;;;;;6.47;5.55;;;12.10;65.60;;;;;;5031004;28;20232;-72
2022/04/04 13:08:20;;;;;;;5.57;5.07;;;12.30;67.40;;;;;;5030811;28;20205;-72
2022/04/04 13:11:05;;;;;;;6.25;5.65;;;12.90;67.10;;;;;;5031351;28;20198;-72
2022/04/04 13:13:34;;;;;;;7.75;5.45;;;13.30;63.50;;;;;;5032401;28;20581;-72
2022/04/04 13:16:03;;;;;;;5.68;5.18;;;13.60;63.20;;;;;;5032845;28;20255;-72
2022/04/04 13:18:30;;;;;;;5.80;5.30;;;13.50;64.70;;;;;;5030506;28;20209;-72